Time;durP1;ratioP1;P1;durP2;ratioP2;P2;SDS_P1;SDS_P2;PMS_P1;PMS_P2;Temp;Humidity;BMP_temperature;BMP_pressure;BME280_temperature;BME280_humidity;BME280_pressure;Samples;Min_cycle;Max_cycle;Signal;HPM_P1;HPM_P2
2022/07/10 00:00:46;;;;;;;;;;;15.70;92.40;;;;;;5020809;28;19932;-50
2022/07/10 00:03:30;;;;;;;;;;;15.50;93.00;;;;;;5035802;28;20412;-54
2022/07/10 00:06:14;;;;;;;;;;;15.50;92.90;;;;;;5032757;28;19967;-50
2022/07/10 00:08:58;;;;;;;;;;;15.40;93.10;;;;;;5035372;28;19923;-53
2022/07/10 00:11:43;;;;;;;;;;;15.50;93.30;;;;;;5016814;28;19928;-49
2022/07/10 00:14:27;;;;;;;;;;;15.50;93.20;;;;;;5039017;28;19975;-48
2022/07/10 00:17:11;;;;;;;;;;;15.50;93.10;;;;;;5029498;28;20407;-52
2022/07/10 00:19:55;;;;;;;;;;;15.60;93.10;;;;;;5041256;28;19963;-51
2022/07/10 00:22:40;;;;;;;;;;;15.40;93.60;;;;;;5041839;28;19920;-52
2022/07/10 00:25:24;;;;;;;;;;;15.20;93.60;;;;;;5040233;28;20174;-47
2022/07/10 00:28:08;;;;;;;;;;;15.40;93.50;;;;;;5040687;28;20407;-49
2022/07/10 00:30:52;;;;;;;;;;;15.40;93.50;;;;;;5038339;28;19919;-50
2022/07/10 00:33:37;;;;;;;;;;;15.20;93.80;;;;;;5042512;28;19967;-51
2022/07/10 00:36:21;;;;;;;;;;;15.20;93.90;;;;;;5040648;28;19916;-49
2022/07/10 00:39:05;;;;;;;;;;;15.20;93.70;;;;;;5041155;28;19931;-49
2022/07/10 00:41:51;;;;;;;;;;;15.20;93.80;;;;;;5040322;28;19923;-53
2022/07/10 00:44:35;;;;;;;;;;;15.10;94.00;;;;;;5041003;28;19931;-49
2022/07/10 00:47:19;;;;;;;;;;;15.10;94.00;;;;;;5026854;28;19983;-50
2022/07/10 00:50:04;;;;;;;;;;;15.10;94.00;;;;;;5033742;28;19944;-47
2022/07/10 00:52:48;;;;;;;;;;;15.10;93.90;;;;;;5032301;28;19944;-49
2022/07/10 00:55:32;;;;;;;;;;;15.10;94.10;;;;;;5033071;28;19920;-51
2022/07/10 00:58:16;;;;;;;;;;;15.00;94.30;;;;;;5033722;28;19995;-51
2022/07/10 01:01:01;;;;;;;;;;;15.00;94.40;;;;;;5033166;28;19940;-55
2022/07/10 01:03:46;;;;;;;;;;;14.80;94.60;;;;;;5034076;28;19912;-55
2022/07/10 01:06:30;;;;;;;;;;;14.80;94.70;;;;;;5033449;28;19916;-50
2022/07/10 01:09:14;;;;;;;;;;;14.70;95.00;;;;;;5030935;28;19928;-48
2022/07/10 01:12:01;;;;;;;;;;;14.70;95.00;;;;;;5031142;28;19919;-51
2022/07/10 01:14:45;;;;;;;;;;;14.60;95.40;;;;;;5030707;28;20008;-54
2022/07/10 01:17:30;;;;;;;;;;;14.90;95.10;;;;;;5016628;28;19916;-50
2022/07/10 01:20:14;;;;;;;;;;;14.90;94.90;;;;;;5031204;28;19941;-48
2022/07/10 01:22:59;;;;;;;;;;;14.80;95.00;;;;;;5030130;28;20047;-49
2022/07/10 01:25:43;;;;;;;;;;;14.90;95.10;;;;;;5033202;28;20422;-54
2022/07/10 01:28:29;;;;;;;;;;;15.00;94.80;;;;;;5033003;28;19940;-50
2022/07/10 01:31:14;;;;;;;;;;;15.10;94.60;;;;;;5035297;28;19916;-51
2022/07/10 01:33:59;;;;;;;;;;;15.10;94.70;;;;;;5021772;28;19919;-51
2022/07/10 01:36:43;;;;;;;;;;;14.90;94.90;;;;;;5029028;28;19920;-48
2022/07/10 01:39:27;;;;;;;;;;;14.70;95.00;;;;;;5041063;28;19943;-53
2022/07/10 01:42:11;;;;;;;;;;;14.60;95.10;;;;;;5041775;28;19969;-56
2022/07/10 01:44:56;;;;;;;;;;;14.50;95.30;;;;;;5039661;28;20430;-54
2022/07/10 01:47:40;;;;;;;;;;;14.50;95.30;;;;;;5040607;28;20281;-48
2022/07/10 01:50:24;;;;;;;;;;;14.60;95.20;;;;;;5044606;28;19932;-48
2022/07/10 01:53:08;;;;;;;;;;;14.70;95.00;;;;;;5046117;28;19928;-49
2022/07/10 01:55:53;;;;;;;;;;;14.60;95.10;;;;;;5041079;28;19919;-50
2022/07/10 01:58:37;;;;;;;;;;;14.50;95.50;;;;;;5046983;28;20737;-52
2022/07/10 02:01:21;;;;;;;;;;;14.60;95.20;;;;;;5046820;28;20003;-51
2022/07/10 02:07:09;;;;;;;;;;;14.60;95.30;;;;;;5047494;28;19920;-49
2022/07/10 02:09:53;;;;;;;;;;;14.70;95.20;;;;;;5043077;28;19916;-48
2022/07/10 02:12:37;;;;;;;;;;;14.70;95.30;;;;;;5043622;28;19954;-49
2022/07/10 02:15:21;;;;;;;;;;;14.70;95.20;;;;;;5032835;28;19951;-50
2022/07/10 02:18:06;;;;;;;;;;;14.60;95.40;;;;;;5030580;28;19920;-48
2022/07/10 02:20:50;;;;;;;;;;;14.80;95.10;;;;;;5046397;28;20002;-50
2022/07/10 02:23:35;;;;;;;;;;;14.90;95.00;;;;;;5046359;28;19935;-47
2022/07/10 02:26:19;;;;;;;;;;;14.90;95.20;;;;;;5042492;28;20027;-53
2022/07/10 02:29:03;;;;;;;;;;;14.90;95.00;;;;;;5045351;28;19964;-50
2022/07/10 02:31:48;;;;;;;;;;;14.90;95.20;;;;;;5042169;28;20418;-50
2022/07/10 02:34:32;;;;;;;;;;;14.80;95.50;;;;;;5045752;28;20016;-51
2022/07/10 02:37:16;;;;;;;;;;;14.70;95.60;;;;;;5048899;28;20016;-49
2022/07/10 02:40:00;;;;;;;;;;;14.60;95.70;;;;;;5041509;28;19977;-49
2022/07/10 02:42:45;;;;;;;;;;;14.70;95.70;;;;;;5028816;28;19920;-47
2022/07/10 02:45:29;;;;;;;;;;;14.70;95.30;;;;;;5046038;28;19963;-46
2022/07/10 02:48:17;;;;;;;;;;;14.80;95.20;;;;;;5039153;28;20275;-48
2022/07/10 02:51:02;;;;;;;;;;;14.80;95.20;;;;;;5038934;28;19928;-57
2022/07/10 02:53:46;;;;;;;;;;;14.80;95.10;;;;;;5034783;28;19928;-52
2022/07/10 02:56:31;;;;;;;;;;;14.70;95.30;;;;;;5034927;28;19956;-50
2022/07/10 02:59:16;;;;;;;;;;;14.80;95.10;;;;;;5034611;28;19920;-48
2022/07/10 03:02:01;;;;;;;;;;;14.70;95.30;;;;;;5032026;28;20284;-50
2022/07/10 03:04:45;;;;;;;;;;;14.60;95.60;;;;;;5046241;28;19936;-51
2022/07/10 03:07:29;;;;;;;;;;;14.50;95.60;;;;;;5036020;28;20284;-50
2022/07/10 03:10:13;;;;;;;;;;;14.70;95.40;;;;;;5025341;28;19920;-49
2022/07/10 03:12:57;;;;;;;;;;;14.70;95.40;;;;;;5031177;28;19971;-47
2022/07/10 03:15:42;;;;;;;;;;;14.80;95.30;;;;;;5034473;28;19916;-49
2022/07/10 03:18:26;;;;;;;;;;;14.70;95.40;;;;;;5026985;28;19967;-49
2022/07/10 03:21:10;;;;;;;;;;;14.50;95.80;;;;;;5035486;28;20527;-48
2022/07/10 03:23:54;;;;;;;;;;;14.60;95.80;;;;;;5026787;28;19920;-49
2022/07/10 03:26:38;;;;;;;;;;;14.40;95.90;;;;;;5032879;28;20335;-51
2022/07/10 03:29:23;;;;;;;;;;;14.50;95.70;;;;;;5030487;28;19999;-52
2022/07/10 03:32:07;;;;;;;;;;;14.30;96.00;;;;;;5032899;28;19931;-49
2022/07/10 03:34:52;;;;;;;;;;;14.30;96.10;;;;;;5030967;28;19916;-52
2022/07/10 03:37:36;;;;;;;;;;;14.30;96.00;;;;;;5032253;28;19916;-54
2022/07/10 03:40:20;;;;;;;;;;;14.20;96.10;;;;;;5033392;28;19955;-48
2022/07/10 03:43:04;;;;;;;;;;;14.30;96.20;;;;;;5030130;28;19927;-48
2022/07/10 03:45:48;;;;;;;;;;;14.30;96.20;;;;;;5031449;28;19923;-50
2022/07/10 03:48:34;;;;;;;;;;;14.30;96.10;;;;;;5030790;28;19920;-50
2022/07/10 03:51:18;;;;;;;;;;;14.30;96.20;;;;;;5030358;28;19959;-55
2022/07/10 03:54:02;;;;;;;;;;;14.50;96.20;;;;;;5031790;28;19920;-51
2022/07/10 03:59:50;;;;;;;;;;;14.40;96.80;;;;;;5030280;28;20020;-50
2022/07/10 04:02:34;;;;;;;;;;;14.30;97.30;;;;;;5032806;28;19920;-48
2022/07/10 04:05:18;;;;;;;;;;;14.10;98.00;;;;;;5016987;28;19986;-47
2022/07/10 04:08:03;;;;;;;;;;;13.80;99.10;;;;;;5031743;28;19966;-51
2022/07/10 04:10:49;;;;;;;;;;;13.80;99.90;;;;;;5032724;28;20280;-51
2022/07/10 04:13:33;;;;;;;;;;;13.90;99.90;;;;;;5026875;28;19919;-52
2022/07/10 04:16:18;;;;;;;;;;;13.80;99.90;;;;;;5010689;28;19919;-52
2022/07/10 04:19:02;;;;;;;;;;;13.70;99.90;;;;;;5014971;28;19920;-53
2022/07/10 04:21:46;;;;;;;;;;;13.70;99.90;;;;;;5030751;28;20273;-53
2022/07/10 04:24:30;;;;;;;;;;;13.60;99.90;;;;;;5028665;28;19928;-52
2022/07/10 04:27:16;;;;;;;;;;;13.50;99.90;;;;;;5032331;28;19961;-51
2022/07/10 04:30:01;;;;;;;;;;;13.40;99.90;;;;;;5031393;28;19920;-53
2022/07/10 04:32:45;;;;;;;;;;;13.50;99.90;;;;;;5028535;28;20051;-48
2022/07/10 04:35:29;;;;;;;;;;;13.70;99.90;;;;;;5028976;28;20016;-51
2022/07/10 04:38:13;;;;;;;;;;;13.60;99.90;;;;;;5034578;28;19952;-49
2022/07/10 04:40:58;;;;;;;;;;;13.60;99.90;;;;;;5023587;28;19920;-52
2022/07/10 04:43:42;;;;;;;;;;;13.80;99.90;;;;;;5039645;28;19955;-50
2022/07/10 04:46:27;;;;;;;;;;;13.60;99.90;;;;;;5028943;28;19920;-53
2022/07/10 04:49:11;;;;;;;;;;;13.70;99.90;;;;;;5032203;28;20004;-50
2022/07/10 04:51:56;;;;;;;;;;;13.80;99.90;;;;;;5027141;28;19920;-49
2022/07/10 04:54:40;;;;;;;;;;;13.70;99.90;;;;;;5025588;28;19921;-50
2022/07/10 04:57:24;;;;;;;;;;;13.80;99.90;;;;;;5031986;28;19920;-49
2022/07/10 05:00:09;;;;;;;;;;;13.80;99.90;;;;;;5029342;28;20428;-48
2022/07/10 05:02:52;;;;;;;;;;;13.90;99.90;;;;;;5029560;28;19916;-48
2022/07/10 05:05:37;;;;;;;;;;;13.90;99.90;;;;;;5027779;28;19988;-47
2022/07/10 05:08:21;;;;;;;;;;;13.90;99.90;;;;;;5029998;28;19919;-53
2022/07/10 05:11:05;;;;;;;;;;;13.90;99.90;;;;;;5025128;28;20006;-54
2022/07/10 05:13:49;;;;;;;;;;;13.80;99.90;;;;;;5026301;28;19924;-52
2022/07/10 05:16:34;;;;;;;;;;;13.90;99.90;;;;;;5031315;28;19924;-55
2022/07/10 05:19:18;;;;;;;;;;;13.70;99.90;;;;;;5032190;28;19916;-51
2022/07/10 05:22:02;;;;;;;;;;;13.60;99.90;;;;;;5032602;28;20012;-52
2022/07/10 05:24:46;;;;;;;;;;;13.50;99.90;;;;;;5031369;28;19970;-51
2022/07/10 05:27:30;;;;;;;;;;;13.50;99.90;;;;;;5032072;28;20308;-49
2022/07/10 05:30:15;;;;;;;;;;;13.30;99.90;;;;;;5033923;28;19912;-52
2022/07/10 05:32:59;;;;;;;;;;;13.30;99.90;;;;;;5033364;28;19936;-51
2022/07/10 05:35:43;;;;;;;;;;;13.40;99.90;;;;;;5032610;28;19971;-50
2022/07/10 05:38:27;;;;;;;;;;;13.30;99.90;;;;;;5029738;28;20383;-49
2022/07/10 05:41:11;;;;;;;;;;;13.40;99.90;;;;;;5032311;28;19952;-53
2022/07/10 05:43:56;;;;;;;;;;;13.30;99.90;;;;;;5032541;28;19915;-50
2022/07/10 05:46:40;;;;;;;;;;;13.50;99.90;;;;;;5032532;28;19956;-48
2022/07/10 05:49:24;;;;;;;;;;;13.60;99.90;;;;;;5024455;28;19955;-50
2022/07/10 05:52:08;;;;;;;;;;;13.80;99.90;;;;;;5032632;28;20036;-48
2022/07/10 05:54:53;;;;;;;;;;;14.00;99.90;;;;;;5032801;28;20466;-48
2022/07/10 05:57:37;;;;;;;;;;;14.30;99.90;;;;;;5032533;28;19962;-48
2022/07/10 06:00:22;;;;;;;;;;;14.30;99.90;;;;;;5032494;28;20414;-48
2022/07/10 06:03:06;;;;;;;;;;;14.30;99.90;;;;;;5032925;28;19932;-49
2022/07/10 06:05:50;;;;;;;;;;;14.50;99.90;;;;;;5032132;28;20023;-49
2022/07/10 06:08:34;;;;;;;;;;;14.60;99.90;;;;;;5017421;28;19915;-52
2022/07/10 06:11:18;;;;;;;;;;;14.60;99.90;;;;;;5032719;28;19963;-51
2022/07/10 06:14:03;;;;;;;;;;;14.60;99.90;;;;;;5032187;28;20303;-52
2022/07/10 06:16:47;;;;;;;;;;;14.70;99.90;;;;;;5033801;28;19912;-50
2022/07/10 06:19:31;;;;;;;;;;;14.70;99.90;;;;;;5020976;28;19916;-50
2022/07/10 06:22:30;;;;;;;;;;;14.80;99.90;;;;;;5035448;28;19920;-50
2022/07/10 06:25:15;;;;;;;;;;;14.70;99.90;;;;;;5036202;28;19928;-50
2022/07/10 06:27:59;;;;;;;;;;;14.80;99.90;;;;;;5036092;28;20452;-51
2022/07/10 06:30:44;;;;;;;;;;;14.70;99.90;;;;;;5036738;28;19936;-50
2022/07/10 06:33:28;;;;;;;;;;;14.60;99.90;;;;;;5036544;28;19952;-51
2022/07/10 06:36:13;;;;;;;;;;;14.70;99.90;;;;;;5021320;28;20002;-51
2022/07/10 06:38:57;;;;;;;;;;;14.90;99.90;;;;;;5035195;28;19978;-53
2022/07/10 06:41:41;;;;;;;;;;;14.70;99.90;;;;;;5033750;28;20089;-49
2022/07/10 06:44:25;;;;;;;;;;;14.40;99.90;;;;;;5035503;28;19916;-54
2022/07/10 06:50:13;;;;;;;;;;;14.50;99.90;;;;;;5035376;28;19963;-50
2022/07/10 06:52:58;;;;;;;;;;;14.40;99.90;;;;;;5035521;28;19967;-50
2022/07/10 06:55:42;;;;;;;;;;;14.40;99.90;;;;;;5019547;28;19967;-50
2022/07/10 06:58:26;;;;;;;;;;;14.60;99.90;;;;;;5054653;28;19990;-49
2022/07/10 07:01:10;;;;;;;;;;;14.80;99.90;;;;;;5054680;28;19928;-50
2022/07/10 07:03:55;;;;;;;;;;;15.00;99.90;;;;;;5039741;28;19915;-49
2022/07/10 07:06:39;;;;;;;;;;;14.80;99.90;;;;;;5053920;28;20046;-50
2022/07/10 07:09:23;;;;;;;;;;;14.80;99.90;;;;;;5055175;28;19932;-48
2022/07/10 07:12:08;;;;;;;;;;;14.80;99.90;;;;;;5054706;28;19935;-51
2022/07/10 07:14:52;;;;;;;;;;;15.00;99.90;;;;;;5037706;28;19915;-53
2022/07/10 07:17:56;;;;;;;;;;;14.90;99.90;;;;;;5034035;28;19928;-51
2022/07/10 07:23:44;;;;;;;;;;;14.90;99.90;;;;;;5034677;28;19959;-49
2022/07/10 07:26:28;;;;;;;;;;;15.20;99.90;;;;;;5033352;28;19954;-52
2022/07/10 07:29:16;;;;;;;;;;;15.10;99.90;;;;;;5052974;28;19963;-53
2022/07/10 07:32:00;;;;;;;;;;;15.00;99.90;;;;;;5055612;28;19927;-52
2022/07/10 07:34:44;;;;;;;;;;;15.00;99.90;;;;;;5062718;28;19963;-52
2022/07/10 07:37:39;;;;;;;;;;;15.10;99.90;;;;;;5065505;28;20760;-51
2022/07/10 07:40:23;;;;;;;;;;;15.10;99.90;;;;;;5061629;28;20322;-54
2022/07/10 07:43:07;;;;;;;;;;;14.90;99.90;;;;;;5051398;28;19916;-55
2022/07/10 07:45:51;;;;;;;;;;;14.90;99.90;;;;;;5019618;28;19928;-50
2022/07/10 07:48:36;;;;;;;;;;;14.90;99.90;;;;;;5034462;28;20380;-48
2022/07/10 07:51:20;;;;;;;;;;;14.90;99.90;;;;;;5019368;28;19936;-54
2022/07/10 07:54:04;;;;;;;;;;;14.90;99.90;;;;;;5034162;28;20039;-49
2022/07/10 07:56:48;;;;;;;;;;;14.90;99.90;;;;;;5033769;28;20367;-48
2022/07/10 07:59:33;;;;;;;;;;;15.00;99.70;;;;;;5034489;28;19963;-47
2022/07/10 08:02:17;;;;;;;;;;;14.90;99.90;;;;;;5033559;28;19923;-48
2022/07/10 08:05:02;;;;;;;;;;;14.90;99.90;;;;;;5033958;28;19915;-56
2022/07/10 08:07:47;;;;;;;;;;;15.00;99.90;;;;;;5033711;28;20283;-52
2022/07/10 08:10:31;;;;;;;;;;;15.10;99.60;;;;;;5033666;28;20011;-49
2022/07/10 08:13:21;;;;;;;;;;;15.10;99.30;;;;;;5033826;28;19916;-52
2022/07/10 08:16:05;;;;;;;;;;;15.40;98.90;;;;;;5033849;28;19920;-50
2022/07/10 08:18:50;;;;;;;;;;;15.50;98.90;;;;;;5033365;28;19915;-49
2022/07/10 08:21:34;;;;;;;;;;;15.60;98.30;;;;;;5033550;28;20427;-52
2022/07/10 08:24:18;;;;;;;;;;;15.70;98.10;;;;;;5034911;28;19912;-53
2022/07/10 08:27:03;;;;;;;;;;;15.80;97.80;;;;;;5034479;28;19915;-52
2022/07/10 08:29:47;;;;;;;;;;;15.60;98.10;;;;;;5034933;28;20004;-48
2022/07/10 08:32:31;;;;;;;;;;;15.60;98.20;;;;;;5017936;28;19912;-51
2022/07/10 08:35:15;;;;;;;;;;;15.50;97.50;;;;;;5032548;28;20391;-49
2022/07/10 08:38:00;;;;;;;;;;;15.40;97.20;;;;;;5032341;28;19967;-52
2022/07/10 08:40:45;;;;;;;;;;;15.50;97.70;;;;;;5032635;28;19979;-53
2022/07/10 08:43:29;;;;;;;;;;;15.60;97.60;;;;;;5033167;28;19919;-49
2022/07/10 08:46:14;;;;;;;;;;;15.70;97.60;;;;;;5032609;28;19916;-55
2022/07/10 08:48:59;;;;;;;;;;;15.60;97.60;;;;;;5033065;28;20321;-51
2022/07/10 08:51:52;;;;;;;;;;;15.60;97.80;;;;;;5052448;28;19912;-50
2022/07/10 08:54:38;;;;;;;;;;;15.60;97.90;;;;;;5037980;28;19980;-53
2022/07/10 08:57:23;;;;;;;;;;;15.60;97.60;;;;;;5052770;28;19953;-48
2022/07/10 09:00:08;;;;;;;;;;;15.70;97.50;;;;;;5053053;28;20091;-53
2022/07/10 09:02:53;;;;;;;;;;;15.70;97.40;;;;;;5052574;28;19920;-52
2022/07/10 09:05:37;;;;;;;;;;;15.70;96.90;;;;;;5052671;28;19912;-52
2022/07/10 09:08:27;;;;;;;;;;;15.60;97.40;;;;;;5052795;28;19954;-54
2022/07/10 09:11:16;;;;;;;;;;;15.70;97.30;;;;;;5052672;28;19929;-53
2022/07/10 09:14:03;;;;;;;;;;;15.60;97.60;;;;;;5043249;28;20360;-53
2022/07/10 09:16:49;;;;;;;;;;;15.80;97.60;;;;;;5031777;28;19915;-53
2022/07/10 09:19:34;;;;;;;;;;;15.90;97.30;;;;;;5032351;28;19933;-50
2022/07/10 09:22:18;;;;;;;;;;;15.70;96.30;;;;;;5032583;28;20006;-54
2022/07/10 09:25:11;;;;;;;;;;;15.60;96.30;;;;;;5031830;28;19960;-49
2022/07/10 09:27:56;;;;;;;;;;;15.70;96.50;;;;;;5031971;28;20363;-49
2022/07/10 09:30:41;;;;;;;;;;;15.90;96.40;;;;;;5031915;28;19921;-50
2022/07/10 09:33:26;;;;;;;;;;;16.00;95.90;;;;;;5032561;28;20344;-50
2022/07/10 09:36:11;;;;;;;;;;;16.10;95.60;;;;;;5031609;28;19955;-49
2022/07/10 09:38:57;;;;;;;;;;;16.20;95.80;;;;;;5032991;28;20430;-54
2022/07/10 09:41:41;;;;;;;;;;;16.30;95.20;;;;;;5033460;28;19920;-52
2022/07/10 09:44:25;;;;;;;;;;;16.20;94.90;;;;;;5032467;28;19916;-52
2022/07/10 09:47:21;;;;;;;;;;;16.30;95.10;;;;;;5037475;28;19987;-54
2022/07/10 09:50:24;;;;;;;;;;;16.30;94.50;;;;;;5053708;28;20318;-48
2022/07/10 09:53:12;;;;;;;;;;;16.30;93.90;;;;;;5056244;28;20319;-49
2022/07/10 09:55:57;;;;;;;;;;;16.20;94.10;;;;;;5054169;28;20304;-54
2022/07/10 09:58:42;;;;;;;;;;;16.10;94.60;;;;;;5054283;28;19915;-53
2022/07/10 10:01:27;;;;;;;;;;;16.20;94.60;;;;;;5038574;28;19920;-51
2022/07/10 10:04:12;;;;;;;;;;;16.10;94.70;;;;;;5018742;28;19940;-55
2022/07/10 10:06:57;;;;;;;;;;;16.20;94.70;;;;;;5030536;28;19959;-53
2022/07/10 10:09:45;;;;;;;;;;;16.40;94.50;;;;;;5033000;28;19916;-56
2022/07/10 10:12:31;;;;;;;;;;;16.60;94.10;;;;;;5035806;28;19912;-53
2022/07/10 10:15:16;;;;;;;;;;;16.60;94.10;;;;;;5035392;28;19956;-51
2022/07/10 10:18:01;;;;;;;;;;;16.60;93.80;;;;;;5034091;28;19915;-49
2022/07/10 10:20:47;;;;;;;;;;;16.70;94.00;;;;;;5031458;28;20094;-52
2022/07/10 10:23:32;;;;;;;;;;;16.70;93.80;;;;;;5028350;28;20059;-50
2022/07/10 10:26:17;;;;;;;;;;;16.60;93.80;;;;;;5019898;28;19912;-49
2022/07/10 10:29:02;;;;;;;;;;;16.70;94.10;;;;;;5035368;28;20020;-50
2022/07/10 10:31:47;;;;;;;;;;;17.00;93.00;;;;;;5035804;28;19916;-52
2022/07/10 10:34:44;;;;;;;;;;;17.00;92.90;;;;;;5038894;28;19915;-50
2022/07/10 10:37:40;;;;;;;;;;;17.10;92.20;;;;;;5041673;28;19947;-53
2022/07/10 10:40:32;;;;;;;;;;;17.10;91.80;;;;;;5013522;28;19935;-52
2022/07/10 10:43:21;;;;;;;;;;;17.30;92.00;;;;;;5047731;28;19920;-55
2022/07/10 10:46:23;;;;;;;;;;;17.40;91.90;;;;;;5045149;28;19928;-50
2022/07/10 10:49:08;;;;;;;;;;;17.60;91.30;;;;;;5047879;28;19912;-52
2022/07/10 10:51:58;;;;;;;;;;;17.40;91.20;;;;;;5047044;28;19912;-52
2022/07/10 10:54:55;;;;;;;;;;;17.40;91.50;;;;;;5050365;28;19912;-51
2022/07/10 10:57:44;;;;;;;;;;;17.20;91.80;;;;;;5032414;28;19916;-50
2022/07/10 11:00:37;;;;;;;;;;;17.30;91.80;;;;;;5031541;28;19956;-55
2022/07/10 11:03:23;;;;;;;;;;;17.40;91.80;;;;;;5033581;28;19920;-51
2022/07/10 11:06:13;;;;;;;;;;;17.50;91.30;;;;;;5033404;28;19956;-50
2022/07/10 11:09:20;;;;;;;;;;;17.40;90.60;;;;;;5031329;28;19924;-51
2022/07/10 11:12:05;;;;;;;;;;;17.40;91.00;;;;;;5032619;28;19954;-52
2022/07/10 11:14:50;;;;;;;;;;;17.70;90.70;;;;;;5034308;28;19955;-54
2022/07/10 11:17:34;;;;;;;;;;;17.90;90.40;;;;;;5033019;28;20395;-50
2022/07/10 11:20:18;;;;;;;;;;;18.00;90.00;;;;;;5030897;28;19911;-52
2022/07/10 11:23:21;;;;;;;;;;;18.10;89.20;;;;;;5033416;28;19959;-48
2022/07/10 11:26:20;;;;;;;;;;;18.10;88.60;;;;;;5033216;28;19955;-52
2022/07/10 11:29:08;;;;;;;;;;;18.00;87.90;;;;;;5033470;28;20012;-52
2022/07/10 11:31:55;;;;;;;;;;;17.90;88.80;;;;;;5026784;28;19916;-55
2022/07/10 11:34:39;;;;;;;;;;;18.10;86.70;;;;;;5028713;28;19915;-52
2022/07/10 11:37:28;;;;;;;;;;;18.20;86.20;;;;;;5031759;28;19916;-53
2022/07/10 11:40:13;;;;;;;;;;;18.30;85.10;;;;;;5033174;28;19936;-54
2022/07/10 11:42:59;;;;;;;;;;;18.30;83.50;;;;;;5023191;28;20399;-52
2022/07/10 11:45:43;;;;;;;;;;;18.10;85.70;;;;;;5034449;28;19924;-52
2022/07/10 11:48:27;;;;;;;;;;;17.80;85.50;;;;;;5033871;28;19920;-54
2022/07/10 11:51:15;;;;;;;;;;;17.80;85.70;;;;;;5034316;28;20372;-53
2022/07/10 11:54:00;;;;;;;;;;;17.80;86.80;;;;;;5034665;28;19924;-51
2022/07/10 11:56:53;;;;;;;;;;;17.80;86.50;;;;;;5031562;28;19916;-50
2022/07/10 11:59:38;;;;;;;;;;;17.90;86.90;;;;;;5014376;28;19913;-48
2022/07/10 12:02:22;;;;;;;;;;;18.30;86.00;;;;;;5014213;28;19963;-54
2022/07/10 12:05:07;;;;;;;;;;;18.50;85.60;;;;;;5013823;28;19912;-50
2022/07/10 12:07:51;;;;;;;;;;;18.80;84.60;;;;;;5016061;28;19920;-49
2022/07/10 12:10:36;;;;;;;;;;;18.80;83.70;;;;;;5017439;28;19963;-50
2022/07/10 12:13:20;;;;;;;;;;;18.80;83.90;;;;;;5034085;28;19975;-50
2022/07/10 12:16:06;;;;;;;;;;;18.90;83.40;;;;;;5032452;28;19920;-51
2022/07/10 12:18:50;;;;;;;;;;;19.00;84.10;;;;;;5032218;28;19919;-50
2022/07/10 12:21:35;;;;;;;;;;;18.90;82.60;;;;;;5033611;28;19920;-50
2022/07/10 12:24:20;;;;;;;;;;;18.70;83.70;;;;;;5033325;28;20352;-54
2022/07/10 12:27:04;;;;;;;;;;;18.80;83.50;;;;;;5032458;28;19911;-50
2022/07/10 12:29:59;;;;;;;;;;;18.80;83.50;;;;;;5017943;28;19959;-53
2022/07/10 12:32:44;;;;;;;;;;;18.70;83.70;;;;;;5027826;28;19947;-54
2022/07/10 12:35:28;;;;;;;;;;;18.60;82.80;;;;;;5032607;28;19915;-49
2022/07/10 12:38:19;;;;;;;;;;;18.90;82.10;;;;;;5033397;28;19924;-51
2022/07/10 12:41:08;;;;;;;;;;;18.80;82.50;;;;;;5024939;28;19956;-53
2022/07/10 12:43:53;;;;;;;;;;;18.60;82.60;;;;;;5031395;28;19943;-50
2022/07/10 12:46:37;;;;;;;;;;;18.50;82.70;;;;;;5028488;28;20356;-51
2022/07/10 12:49:21;;;;;;;;;;;18.80;82.20;;;;;;5032933;28;19955;-53
2022/07/10 12:52:18;;;;;;;;;;;19.30;82.60;;;;;;5032676;28;19947;-49
2022/07/10 12:55:10;;;;;;;;;;;19.60;82.10;;;;;;5017536;28;20375;-54
2022/07/10 12:57:58;;;;;;;;;;;19.50;80.70;;;;;;5028427;28;19924;-52
2022/07/10 13:00:43;;;;;;;;;;;19.60;81.00;;;;;;5030292;28;19916;-56
2022/07/10 13:03:32;;;;;;;;;;;19.60;81.70;;;;;;5029072;28;19971;-62
2022/07/10 13:06:29;;;;;;;;;;;19.60;80.70;;;;;;5032986;28;20012;-58
2022/07/10 13:09:20;;;;;;;;;;;19.80;79.00;;;;;;5017902;28;20330;-56
2022/07/10 13:12:04;;;;;;;;;;;19.80;79.20;;;;;;5030364;28;20032;-57
2022/07/10 13:14:48;;;;;;;;;;;19.80;77.80;;;;;;5028619;28;19920;-56
2022/07/10 13:17:33;;;;;;;;;;;19.80;76.60;;;;;;5032094;28;19916;-54
2022/07/10 13:20:17;;;;;;;;;;;19.80;76.10;;;;;;5019721;28;19959;-58
2022/07/10 13:23:01;;;;;;;;;;;19.90;76.40;;;;;;5030699;28;20395;-58
2022/07/10 13:25:45;;;;;;;;;;;19.80;77.10;;;;;;5034212;28;19947;-55
2022/07/10 13:28:30;;;;;;;;;;;19.70;77.80;;;;;;5037527;28;19916;-57
2022/07/10 13:31:14;;;;;;;;;;;19.60;77.80;;;;;;5037860;28;19912;-57
2022/07/10 13:33:58;;;;;;;;;;;19.50;77.20;;;;;;5037464;28;19932;-55
2022/07/10 13:36:42;;;;;;;;;;;19.60;76.60;;;;;;5035344;28;19920;-52
2022/07/10 13:39:27;;;;;;;;;;;19.60;76.10;;;;;;5001967;28;19975;-53
2022/07/10 13:42:11;;;;;;;;;;;19.70;75.40;;;;;;5016772;28;20027;-58
2022/07/10 13:44:55;;;;;;;;;;;19.90;75.20;;;;;;5052958;28;19992;-58
2022/07/10 13:47:39;;;;;;;;;;;19.80;74.70;;;;;;5056620;28;20414;-55
2022/07/10 13:50:24;;;;;;;;;;;19.90;75.10;;;;;;5056673;28;19911;-52
2022/07/10 13:53:09;;;;;;;;;;;19.80;76.70;;;;;;5056345;28;19938;-52
2022/07/10 13:55:53;;;;;;;;;;;19.80;77.20;;;;;;5056597;28;19931;-52
2022/07/10 13:58:38;;;;;;;;;;;19.70;76.10;;;;;;5056295;28;19916;-53
2022/07/10 14:01:22;;;;;;;;;;;19.80;76.60;;;;;;5056785;28;19962;-54
2022/07/10 14:04:08;;;;;;;;;;;20.20;77.10;;;;;;5038895;28;19967;-53
2022/07/10 14:06:52;;;;;;;;;;;20.50;76.60;;;;;;5035466;28;19916;-55
2022/07/10 14:09:36;;;;;;;;;;;20.60;76.40;;;;;;5036889;28;19920;-53
2022/07/10 14:12:21;;;;;;;;;;;20.40;76.70;;;;;;5037005;28;19972;-55
2022/07/10 14:15:05;;;;;;;;;;;20.40;75.70;;;;;;5042863;28;19963;-59
2022/07/10 14:17:50;;;;;;;;;;;20.60;75.10;;;;;;5042879;28;19916;-52
2022/07/10 14:21:02;;;;;;;;;;;21.10;73.20;;;;;;5043179;28;19915;-58
2022/07/10 14:23:41;;;;;;;;;;;21.10;71.30;;;;;;5036272;28;20339;-53
2022/07/10 14:26:25;;;;;;;;;;;20.70;72.70;;;;;;5035880;28;20419;-58
2022/07/10 14:29:09;;;;;;;;;;;20.50;73.50;;;;;;5035562;28;19931;-52
2022/07/10 14:31:54;;;;;;;;;;;20.30;74.30;;;;;;5034703;28;20394;-55
2022/07/10 14:34:38;;;;;;;;;;;20.30;75.00;;;;;;5036106;28;20291;-56
2022/07/10 14:37:22;;;;;;;;;;;20.30;74.90;;;;;;5034416;28;19916;-58
2022/07/10 14:40:07;;;;;;;;;;;20.20;75.30;;;;;;5034733;28;19924;-57
2022/07/10 14:42:51;;;;;;;;;;;20.10;75.40;;;;;;5034422;28;19995;-57
2022/07/10 14:45:35;;;;;;;;;;;20.30;75.80;;;;;;5035402;28;19920;-52
2022/07/10 14:48:19;;;;;;;;;;;20.50;74.90;;;;;;5035022;28;19915;-54
2022/07/10 14:51:07;;;;;;;;;;;20.50;75.20;;;;;;5035524;28;19999;-56
2022/07/10 14:54:17;;;;;;;;;;;20.50;75.00;;;;;;5020150;28;19932;-55
2022/07/10 14:57:22;;;;;;;;;;;21.00;74.10;;;;;;5034450;28;20416;-55
2022/07/10 15:00:06;;;;;;;;;;;21.60;71.00;;;;;;5001687;28;19962;-55
2022/07/10 15:02:50;;;;;;;;;;;21.80;72.00;;;;;;5034958;28;20355;-54
2022/07/10 15:05:35;;;;;;;;;;;21.40;72.90;;;;;;5034937;28;19971;-55
2022/07/10 15:08:22;;;;;;;;;;;21.60;69.50;;;;;;5034526;28;19919;-52
2022/07/10 15:11:07;;;;;;;;;;;21.30;70.40;;;;;;5034942;28;19964;-52
2022/07/10 15:13:52;;;;;;;;;;;20.90;69.90;;;;;;5035024;28;19932;-54
2022/07/10 15:16:46;;;;;;;;;;;21.40;70.10;;;;;;5020490;28;20360;-52
2022/07/10 15:19:30;;;;;;;;;;;22.00;69.60;;;;;;5034656;28;20430;-55
2022/07/10 15:22:15;;;;;;;;;;;22.30;68.60;;;;;;5054466;28;19970;-52
2022/07/10 15:24:59;;;;;;;;;;;22.10;68.40;;;;;;5055187;28;19916;-56
2022/07/10 15:27:43;;;;;;;;;;;21.40;70.00;;;;;;5046753;28;19955;-55
2022/07/10 15:30:27;;;;;;;;;;;21.10;70.60;;;;;;5034346;28;19948;-58
2022/07/10 15:33:12;;;;;;;;;;;20.70;71.40;;;;;;5034688;28;19959;-54
2022/07/10 15:35:56;;;;;;;;;;;20.50;72.40;;;;;;5019484;28;19916;-56
2022/07/10 15:38:40;;;;;;;;;;;20.50;73.00;;;;;;5034240;28;19955;-58
2022/07/10 15:41:25;;;;;;;;;;;20.50;73.70;;;;;;5034918;28;19970;-53
2022/07/10 15:44:09;;;;;;;;;;;20.70;73.40;;;;;;5033382;28;19919;-58
2022/07/10 15:46:53;;;;;;;;;;;20.80;73.50;;;;;;5033550;28;19963;-52
2022/07/10 15:49:38;;;;;;;;;;;20.80;73.90;;;;;;5028773;28;20372;-56
2022/07/10 15:52:22;;;;;;;;;;;21.30;72.80;;;;;;5010076;28;19971;-55
2022/07/10 15:55:07;;;;;;;;;;;21.20;72.90;;;;;;5032460;28;19962;-60
2022/07/10 15:57:50;;;;;;;;;;;20.90;73.80;;;;;;5018838;28;20002;-57
2022/07/10 16:00:35;;;;;;;;;;;20.90;73.90;;;;;;5034479;28;19994;-57
2022/07/10 16:03:19;;;;;;;;;;;21.00;73.30;;;;;;5018493;28;19916;-56
2022/07/10 16:06:03;;;;;;;;;;;21.10;73.80;;;;;;5034058;28;20316;-55
2022/07/10 16:08:47;;;;;;;;;;;21.10;73.40;;;;;;5033655;28;19932;-55
2022/07/10 16:11:31;;;;;;;;;;;21.50;73.20;;;;;;5034319;28;20012;-58
2022/07/10 16:14:15;;;;;;;;;;;21.60;71.50;;;;;;5038203;28;20379;-58